sensor_id;sensor_type;location;lat;lon;timestamp;temperature;humidity
40828;DHT22;26549;50.918;5.338;2024-03-22T00:00:17;13.80;99.90
40828;DHT22;26549;50.918;5.338;2024-03-22T00:02:43;13.80;99.90
40828;DHT22;26549;50.918;5.338;2024-03-22T00:05:08;13.80;99.90
40828;DHT22;26549;50.918;5.338;2024-03-22T00:07:34;13.90;99.90
40828;DHT22;26549;50.918;5.338;2024-03-22T00:10:00;13.90;99.90
40828;DHT22;26549;50.918;5.338;2024-03-22T00:12:25;13.90;99.90
40828;DHT22;26549;50.918;5.338;2024-03-22T00:14:51;13.90;99.90
40828;DHT22;26549;50.918;5.338;2024-03-22T00:17:20;13.90;99.90
40828;DHT22;26549;50.918;5.338;2024-03-22T00:19:46;13.80;99.90
40828;DHT22;26549;50.918;5.338;2024-03-22T00:22:11;13.90;99.90
40828;DHT22;26549;50.918;5.338;2024-03-22T00:24:37;13.70;99.90
40828;DHT22;26549;50.918;5.338;2024-03-22T00:27:03;13.80;99.90
40828;DHT22;26549;50.918;5.338;2024-03-22T00:29:30;13.80;99.90
40828;DHT22;26549;50.918;5.338;2024-03-22T00:31:55;13.80;99.90
40828;DHT22;26549;50.918;5.338;2024-03-22T00:34:21;13.80;99.90
40828;DHT22;26549;50.918;5.338;2024-03-22T00:36:47;13.80;99.90
40828;DHT22;26549;50.918;5.338;2024-03-22T00:39:13;13.80;99.90
40828;DHT22;26549;50.918;5.338;2024-03-22T00:41:38;13.90;99.90
40828;DHT22;26549;50.918;5.338;2024-03-22T00:44:04;13.90;99.90
40828;DHT22;26549;50.918;5.338;2024-03-22T00:46:30;13.80;99.90
40828;DHT22;26549;50.918;5.338;2024-03-22T00:48:56;13.70;99.90
40828;DHT22;26549;50.918;5.338;2024-03-22T00:51:25;13.70;99.90
40828;DHT22;26549;50.918;5.338;2024-03-22T00:53:50;13.90;99.90
40828;DHT22;26549;50.918;5.338;2024-03-22T00:56:16;13.90;99.90
40828;DHT22;26549;50.918;5.338;2024-03-22T00:58:42;13.90;99.90
40828;DHT22;26549;50.918;5.338;2024-03-22T01:01:08;13.90;99.90
40828;DHT22;26549;50.918;5.338;2024-03-22T01:03:33;13.90;99.90
40828;DHT22;26549;50.918;5.338;2024-03-22T01:05:59;13.90;99.90
40828;DHT22;26549;50.918;5.338;2024-03-22T01:08:25;13.90;99.90
40828;DHT22;26549;50.918;5.338;2024-03-22T01:10:51;14.00;99.90
40828;DHT22;26549;50.918;5.338;2024-03-22T01:13:17;14.00;99.90
40828;DHT22;26549;50.918;5.338;2024-03-22T01:15:43;14.00;99.90
40828;DHT22;26549;50.918;5.338;2024-03-22T01:18:09;14.00;99.90
40828;DHT22;26549;50.918;5.338;2024-03-22T01:20:35;14.00;99.90
40828;DHT22;26549;50.918;5.338;2024-03-22T01:23:01;14.00;99.90
40828;DHT22;26549;50.918;5.338;2024-03-22T01:25:27;14.00;99.90
40828;DHT22;26549;50.918;5.338;2024-03-22T01:27:53;14.10;99.90
40828;DHT22;26549;50.918;5.338;2024-03-22T01:30:19;14.00;99.90
40828;DHT22;26549;50.918;5.338;2024-03-22T01:32:46;13.90;99.90
40828;DHT22;26549;50.918;5.338;2024-03-22T01:35:11;13.90;99.90
40828;DHT22;26549;50.918;5.338;2024-03-22T01:37:37;14.00;99.90
40828;DHT22;26549;50.918;5.338;2024-03-22T01:40:03;14.10;99.90
40828;DHT22;26549;50.918;5.338;2024-03-22T01:42:32;14.00;99.90
40828;DHT22;26549;50.918;5.338;2024-03-22T01:44:58;14.00;99.90
40828;DHT22;26549;50.918;5.338;2024-03-22T01:47:24;14.10;99.90
40828;DHT22;26549;50.918;5.338;2024-03-22T01:49:52;14.00;99.90
40828;DHT22;26549;50.918;5.338;2024-03-22T01:52:19;14.10;99.90
40828;DHT22;26549;50.918;5.338;2024-03-22T01:54:45;14.10;99.90
40828;DHT22;26549;50.918;5.338;2024-03-22T01:57:10;14.00;99.90
40828;DHT22;26549;50.918;5.338;2024-03-22T01:59:36;14.00;99.90
40828;DHT22;26549;50.918;5.338;2024-03-22T02:02:03;14.00;99.90
40828;DHT22;26549;50.918;5.338;2024-03-22T02:04:28;14.10;99.90
40828;DHT22;26549;50.918;5.338;2024-03-22T02:06:54;14.00;99.90
40828;DHT22;26549;50.918;5.338;2024-03-22T02:09:20;14.10;99.90
40828;DHT22;26549;50.918;5.338;2024-03-22T02:11:46;14.10;99.90
40828;DHT22;26549;50.918;5.338;2024-03-22T02:14:12;14.10;99.90
40828;DHT22;26549;50.918;5.338;2024-03-22T02:16:40;14.20;99.90
40828;DHT22;26549;50.918;5.338;2024-03-22T02:19:07;14.10;99.90
40828;DHT22;26549;50.918;5.338;2024-03-22T02:21:33;14.00;99.90
40828;DHT22;26549;50.918;5.338;2024-03-22T02:23:58;13.90;99.90
40828;DHT22;26549;50.918;5.338;2024-03-22T02:26:24;14.00;99.90
40828;DHT22;26549;50.918;5.338;2024-03-22T02:28:50;14.00;99.90
40828;DHT22;26549;50.918;5.338;2024-03-22T02:31:16;14.00;99.90
40828;DHT22;26549;50.918;5.338;2024-03-22T02:33:41;14.10;99.90
40828;DHT22;26549;50.918;5.338;2024-03-22T02:36:07;14.20;99.90
40828;DHT22;26549;50.918;5.338;2024-03-22T02:38:33;14.10;99.90
40828;DHT22;26549;50.918;5.338;2024-03-22T02:40:59;14.10;99.90
40828;DHT22;26549;50.918;5.338;2024-03-22T02:43:25;14.00;99.90
40828;DHT22;26549;50.918;5.338;2024-03-22T02:45:50;13.90;99.90
40828;DHT22;26549;50.918;5.338;2024-03-22T02:48:16;14.00;99.90
40828;DHT22;26549;50.918;5.338;2024-03-22T02:50:43;13.90;99.90
40828;DHT22;26549;50.918;5.338;2024-03-22T02:53:09;14.00;99.90
40828;DHT22;26549;50.918;5.338;2024-03-22T02:55:39;13.90;99.90
40828;DHT22;26549;50.918;5.338;2024-03-22T02:58:06;13.90;99.90
40828;DHT22;26549;50.918;5.338;2024-03-22T03:00:38;13.90;99.90
40828;DHT22;26549;50.918;5.338;2024-03-22T03:03:07;13.90;99.90
40828;DHT22;26549;50.918;5.338;2024-03-22T03:05:33;13.90;99.90
40828;DHT22;26549;50.918;5.338;2024-03-22T03:07:59;13.90;99.90
40828;DHT22;26549;50.918;5.338;2024-03-22T03:10:24;13.90;99.90
40828;DHT22;26549;50.918;5.338;2024-03-22T03:12:50;13.80;99.90
40828;DHT22;26549;50.918;5.338;2024-03-22T03:15:17;13.80;99.90
40828;DHT22;26549;50.918;5.338;2024-03-22T03:17:42;13.80;99.90
40828;DHT22;26549;50.918;5.338;2024-03-22T03:20:09;13.80;99.90
40828;DHT22;26549;50.918;5.338;2024-03-22T03:22:36;13.80;99.90
40828;DHT22;26549;50.918;5.338;2024-03-22T03:25:04;13.80;99.90
40828;DHT22;26549;50.918;5.338;2024-03-22T03:27:30;13.70;99.90
40828;DHT22;26549;50.918;5.338;2024-03-22T03:29:56;13.70;99.90
40828;DHT22;26549;50.918;5.338;2024-03-22T03:32:21;13.70;99.90
40828;DHT22;26549;50.918;5.338;2024-03-22T03:34:47;13.70;99.90
40828;DHT22;26549;50.918;5.338;2024-03-22T03:37:13;13.80;99.90
40828;DHT22;26549;50.918;5.338;2024-03-22T03:39:39;13.70;99.90
40828;DHT22;26549;50.918;5.338;2024-03-22T03:42:05;13.70;99.90
40828;DHT22;26549;50.918;5.338;2024-03-22T03:44:33;13.80;99.90
40828;DHT22;26549;50.918;5.338;2024-03-22T03:47:01;13.90;99.90
40828;DHT22;26549;50.918;5.338;2024-03-22T03:49:27;13.90;99.90
40828;DHT22;26549;50.918;5.338;2024-03-22T03:51:52;13.90;99.90
40828;DHT22;26549;50.918;5.338;2024-03-22T03:54:18;13.90;99.90
40828;DHT22;26549;50.918;5.338;2024-03-22T03:56:44;13.80;99.90
40828;DHT22;26549;50.918;5.338;2024-03-22T03:59:10;13.80;99.90
40828;DHT22;26549;50.918;5.338;2024-03-22T04:01:35;13.80;99.90
40828;DHT22;26549;50.918;5.338;2024-03-22T04:04:02;13.80;99.90
40828;DHT22;26549;50.918;5.338;2024-03-22T04:06:28;13.70;99.90
40828;DHT22;26549;50.918;5.338;2024-03-22T04:08:54;13.70;99.90
40828;DHT22;26549;50.918;5.338;2024-03-22T04:11:19;13.70;99.90
40828;DHT22;26549;50.918;5.338;2024-03-22T04:13:45;13.70;99.90
40828;DHT22;26549;50.918;5.338;2024-03-22T04:16:11;13.70;99.90
40828;DHT22;26549;50.918;5.338;2024-03-22T04:18:37;13.80;99.90
40828;DHT22;26549;50.918;5.338;2024-03-22T04:21:02;13.70;99.90
40828;DHT22;26549;50.918;5.338;2024-03-22T04:23:28;13.70;99.90
40828;DHT22;26549;50.918;5.338;2024-03-22T04:25:59;13.70;99.90
40828;DHT22;26549;50.918;5.338;2024-03-22T04:28:26;13.60;99.90
40828;DHT22;26549;50.918;5.338;2024-03-22T04:31:00;13.70;99.90
40828;DHT22;26549;50.918;5.338;2024-03-22T04:33:27;13.70;99.90
40828;DHT22;26549;50.918;5.338;2024-03-22T04:35:55;13.70;99.90
40828;DHT22;26549;50.918;5.338;2024-03-22T04:38:24;13.80;99.90
40828;DHT22;26549;50.918;5.338;2024-03-22T04:40:50;13.70;99.90
40828;DHT22;26549;50.918;5.338;2024-03-22T04:43:16;13.70;99.90
40828;DHT22;26549;50.918;5.338;2024-03-22T04:45:46;13.60;99.90
40828;DHT22;26549;50.918;5.338;2024-03-22T04:48:18;13.60;99.90
40828;DHT22;26549;50.918;5.338;2024-03-22T04:50:48;13.70;99.90
40828;DHT22;26549;50.918;5.338;2024-03-22T04:53:16;13.70;99.90
40828;DHT22;26549;50.918;5.338;2024-03-22T04:55:46;13.60;99.90
40828;DHT22;26549;50.918;5.338;2024-03-22T04:58:17;13.70;99.90
40828;DHT22;26549;50.918;5.338;2024-03-22T05:00:45;13.70;99.90
40828;DHT22;26549;50.918;5.338;2024-03-22T05:03:11;13.80;99.90
40828;DHT22;26549;50.918;5.338;2024-03-22T05:05:37;13.80;99.90
40828;DHT22;26549;50.918;5.338;2024-03-22T05:08:03;13.70;99.90
40828;DHT22;26549;50.918;5.338;2024-03-22T05:10:29;13.80;99.90
40828;DHT22;26549;50.918;5.338;2024-03-22T05:12:56;13.80;99.90
40828;DHT22;26549;50.918;5.338;2024-03-22T05:15:22;13.90;99.90
40828;DHT22;26549;50.918;5.338;2024-03-22T05:17:48;14.00;99.90
40828;DHT22;26549;50.918;5.338;2024-03-22T05:20:14;14.00;99.90
40828;DHT22;26549;50.918;5.338;2024-03-22T05:22:41;13.90;99.90
40828;DHT22;26549;50.918;5.338;2024-03-22T05:25:08;13.80;99.90
40828;DHT22;26549;50.918;5.338;2024-03-22T05:27:34;13.70;99.90
40828;DHT22;26549;50.918;5.338;2024-03-22T05:30:00;13.70;99.90
40828;DHT22;26549;50.918;5.338;2024-03-22T05:32:26;13.70;99.90
40828;DHT22;26549;50.918;5.338;2024-03-22T05:34:52;13.80;99.90
40828;DHT22;26549;50.918;5.338;2024-03-22T05:37:18;13.80;99.90
40828;DHT22;26549;50.918;5.338;2024-03-22T05:39:44;13.90;99.90
40828;DHT22;26549;50.918;5.338;2024-03-22T05:42:11;13.80;99.90
40828;DHT22;26549;50.918;5.338;2024-03-22T05:44:37;13.80;99.90
40828;DHT22;26549;50.918;5.338;2024-03-22T05:47:03;13.90;99.90
40828;DHT22;26549;50.918;5.338;2024-03-22T05:49:29;13.90;99.90
40828;DHT22;26549;50.918;5.338;2024-03-22T05:51:55;13.90;99.90
40828;DHT22;26549;50.918;5.338;2024-03-22T05:54:21;13.90;99.90
40828;DHT22;26549;50.918;5.338;2024-03-22T05:56:46;14.00;99.90
40828;DHT22;26549;50.918;5.338;2024-03-22T05:59:12;13.80;99.90
40828;DHT22;26549;50.918;5.338;2024-03-22T06:01:38;13.80;99.90
40828;DHT22;26549;50.918;5.338;2024-03-22T06:04:06;13.90;99.90
40828;DHT22;26549;50.918;5.338;2024-03-22T06:06:34;13.90;99.90
40828;DHT22;26549;50.918;5.338;2024-03-22T06:09:01;13.90;99.90
40828;DHT22;26549;50.918;5.338;2024-03-22T06:11:30;13.80;99.90
40828;DHT22;26549;50.918;5.338;2024-03-22T06:13:56;13.80;99.90
40828;DHT22;26549;50.918;5.338;2024-03-22T06:16:29;13.80;99.90
40828;DHT22;26549;50.918;5.338;2024-03-22T06:18:58;13.80;99.90
40828;DHT22;26549;50.918;5.338;2024-03-22T06:21:23;13.80;99.90
40828;DHT22;26549;50.918;5.338;2024-03-22T06:23:51;13.90;99.90
40828;DHT22;26549;50.918;5.338;2024-03-22T06:26:18;13.90;99.90
40828;DHT22;26549;50.918;5.338;2024-03-22T06:28:44;14.00;99.90
40828;DHT22;26549;50.918;5.338;2024-03-22T06:31:17;14.10;99.90
40828;DHT22;26549;50.918;5.338;2024-03-22T06:33:43;13.90;99.90
40828;DHT22;26549;50.918;5.338;2024-03-22T06:36:11;14.10;99.90
40828;DHT22;26549;50.918;5.338;2024-03-22T06:38:37;14.00;99.90
40828;DHT22;26549;50.918;5.338;2024-03-22T06:41:03;14.00;99.90
40828;DHT22;26549;50.918;5.338;2024-03-22T06:43:32;14.00;99.90
40828;DHT22;26549;50.918;5.338;2024-03-22T06:46:01;14.00;99.90
40828;DHT22;26549;50.918;5.338;2024-03-22T06:48:30;14.00;99.90
40828;DHT22;26549;50.918;5.338;2024-03-22T06:50:56;14.10;99.90
40828;DHT22;26549;50.918;5.338;2024-03-22T06:53:21;14.00;99.90
40828;DHT22;26549;50.918;5.338;2024-03-22T06:55:47;14.00;99.90
40828;DHT22;26549;50.918;5.338;2024-03-22T06:58:13;14.00;99.90
40828;DHT22;26549;50.918;5.338;2024-03-22T07:00:41;14.00;99.90
40828;DHT22;26549;50.918;5.338;2024-03-22T07:03:07;14.00;99.90
40828;DHT22;26549;50.918;5.338;2024-03-22T07:05:32;14.10;99.90
40828;DHT22;26549;50.918;5.338;2024-03-22T07:07:58;14.10;99.90
40828;DHT22;26549;50.918;5.338;2024-03-22T07:10:24;13.90;99.90
40828;DHT22;26549;50.918;5.338;2024-03-22T07:12:54;13.90;99.90
40828;DHT22;26549;50.918;5.338;2024-03-22T07:15:22;13.80;99.90
40828;DHT22;26549;50.918;5.338;2024-03-22T07:17:48;13.80;99.90
40828;DHT22;26549;50.918;5.338;2024-03-22T07:20:14;14.00;99.90
40828;DHT22;26549;50.918;5.338;2024-03-22T07:22:40;13.90;99.90
40828;DHT22;26549;50.918;5.338;2024-03-22T07:25:06;13.90;99.90
40828;DHT22;26549;50.918;5.338;2024-03-22T07:27:45;13.90;99.90
40828;DHT22;26549;50.918;5.338;2024-03-22T07:30:24;14.00;99.90
40828;DHT22;26549;50.918;5.338;2024-03-22T07:32:50;13.90;99.90
40828;DHT22;26549;50.918;5.338;2024-03-22T07:35:21;13.90;99.90
40828;DHT22;26549;50.918;5.338;2024-03-22T07:37:54;14.00;99.90
40828;DHT22;26549;50.918;5.338;2024-03-22T07:40:20;14.10;99.90
40828;DHT22;26549;50.918;5.338;2024-03-22T07:42:48;14.10;99.90
40828;DHT22;26549;50.918;5.338;2024-03-22T07:45:14;14.10;99.90
40828;DHT22;26549;50.918;5.338;2024-03-22T07:47:40;14.00;99.90
40828;DHT22;26549;50.918;5.338;2024-03-22T07:50:27;14.00;99.90
40828;DHT22;26549;50.918;5.338;2024-03-22T07:52:55;14.00;99.90
40828;DHT22;26549;50.918;5.338;2024-03-22T07:55:22;14.10;99.90
40828;DHT22;26549;50.918;5.338;2024-03-22T07:57:50;14.10;99.90
40828;DHT22;26549;50.918;5.338;2024-03-22T08:00:16;14.20;99.90
40828;DHT22;26549;50.918;5.338;2024-03-22T08:02:55;14.20;99.90
40828;DHT22;26549;50.918;5.338;2024-03-22T08:05:33;14.20;99.90
40828;DHT22;26549;50.918;5.338;2024-03-22T08:08:01;14.20;99.90
40828;DHT22;26549;50.918;5.338;2024-03-22T08:10:29;14.20;99.90
40828;DHT22;26549;50.918;5.338;2024-03-22T08:12:55;14.30;99.90
40828;DHT22;26549;50.918;5.338;2024-03-22T08:15:21;14.20;99.90
40828;DHT22;26549;50.918;5.338;2024-03-22T08:17:47;14.30;99.90
40828;DHT22;26549;50.918;5.338;2024-03-22T08:20:15;14.20;99.90
40828;DHT22;26549;50.918;5.338;2024-03-22T08:22:41;14.10;99.90
40828;DHT22;26549;50.918;5.338;2024-03-22T08:25:07;14.30;99.90
40828;DHT22;26549;50.918;5.338;2024-03-22T08:27:43;14.30;99.90
40828;DHT22;26549;50.918;5.338;2024-03-22T08:30:12;14.50;99.90
40828;DHT22;26549;50.918;5.338;2024-03-22T08:32:38;14.40;99.90
40828;DHT22;26549;50.918;5.338;2024-03-22T08:35:11;14.00;99.90
40828;DHT22;26549;50.918;5.338;2024-03-22T08:37:53;14.10;99.90
40828;DHT22;26549;50.918;5.338;2024-03-22T08:40:21;14.20;99.90
40828;DHT22;26549;50.918;5.338;2024-03-22T08:42:54;14.30;99.90
40828;DHT22;26549;50.918;5.338;2024-03-22T08:45:24;14.10;99.90
40828;DHT22;26549;50.918;5.338;2024-03-22T08:47:52;14.20;99.90
40828;DHT22;26549;50.918;5.338;2024-03-22T08:50:18;14.20;99.90
40828;DHT22;26549;50.918;5.338;2024-03-22T08:52:54;14.30;99.90
40828;DHT22;26549;50.918;5.338;2024-03-22T08:55:22;14.40;99.90
40828;DHT22;26549;50.918;5.338;2024-03-22T08:57:52;14.30;99.90
40828;DHT22;26549;50.918;5.338;2024-03-22T09:00:22;14.30;99.90
40828;DHT22;26549;50.918;5.338;2024-03-22T09:02:55;14.20;99.90
40828;DHT22;26549;50.918;5.338;2024-03-22T09:05:21;14.10;99.90
40828;DHT22;26549;50.918;5.338;2024-03-22T09:07:53;14.30;99.90
40828;DHT22;26549;50.918;5.338;2024-03-22T09:10:24;14.20;99.90
40828;DHT22;26549;50.918;5.338;2024-03-22T09:13:03;14.30;99.90
40828;DHT22;26549;50.918;5.338;2024-03-22T09:15:32;14.40;99.90
40828;DHT22;26549;50.918;5.338;2024-03-22T09:18:02;14.60;99.90
40828;DHT22;26549;50.918;5.338;2024-03-22T09:20:31;14.40;99.90
40828;DHT22;26549;50.918;5.338;2024-03-22T09:22:57;14.20;99.90
40828;DHT22;26549;50.918;5.338;2024-03-22T09:25:27;14.30;99.90
40828;DHT22;26549;50.918;5.338;2024-03-22T09:28:01;14.10;99.90
40828;DHT22;26549;50.918;5.338;2024-03-22T09:30:32;14.10;99.90
40828;DHT22;26549;50.918;5.338;2024-03-22T09:33:03;14.20;99.90
40828;DHT22;26549;50.918;5.338;2024-03-22T09:35:29;14.40;99.90
40828;DHT22;26549;50.918;5.338;2024-03-22T09:37:57;14.40;99.90
40828;DHT22;26549;50.918;5.338;2024-03-22T09:40:24;14.30;99.90
40828;DHT22;26549;50.918;5.338;2024-03-22T09:42:52;14.20;99.90
40828;DHT22;26549;50.918;5.338;2024-03-22T09:45:19;14.30;99.90
40828;DHT22;26549;50.918;5.338;2024-03-22T09:47:48;14.10;99.90
40828;DHT22;26549;50.918;5.338;2024-03-22T09:50:23;14.10;99.90
40828;DHT22;26549;50.918;5.338;2024-03-22T09:52:52;14.20;99.90
40828;DHT22;26549;50.918;5.338;2024-03-22T09:55:22;14.20;99.90
40828;DHT22;26549;50.918;5.338;2024-03-22T09:57:51;14.20;99.90
40828;DHT22;26549;50.918;5.338;2024-03-22T10:02:57;14.30;99.90
40828;DHT22;26549;50.918;5.338;2024-03-22T10:05:24;14.00;99.90
40828;DHT22;26549;50.918;5.338;2024-03-22T10:08:22;14.00;99.90
40828;DHT22;26549;50.918;5.338;2024-03-22T10:10:55;14.10;99.90
40828;DHT22;26549;50.918;5.338;2024-03-22T10:13:23;14.50;99.90
40828;DHT22;26549;50.918;5.338;2024-03-22T10:15:49;14.60;99.90
40828;DHT22;26549;50.918;5.338;2024-03-22T10:18:19;14.70;99.90
40828;DHT22;26549;50.918;5.338;2024-03-22T10:21:04;14.80;99.90
40828;DHT22;26549;50.918;5.338;2024-03-22T10:23:34;14.80;99.90
40828;DHT22;26549;50.918;5.338;2024-03-22T10:26:00;14.80;99.90
40828;DHT22;26549;50.918;5.338;2024-03-22T10:28:26;14.60;99.90
40828;DHT22;26549;50.918;5.338;2024-03-22T10:30:52;14.90;99.90
40828;DHT22;26549;50.918;5.338;2024-03-22T10:33:19;14.80;99.90
40828;DHT22;26549;50.918;5.338;2024-03-22T10:35:46;14.90;99.90
40828;DHT22;26549;50.918;5.338;2024-03-22T10:38:13;15.20;99.90
40828;DHT22;26549;50.918;5.338;2024-03-22T10:40:44;15.00;99.90
40828;DHT22;26549;50.918;5.338;2024-03-22T10:43:16;15.20;99.90
40828;DHT22;26549;50.918;5.338;2024-03-22T10:45:42;15.20;99.90
40828;DHT22;26549;50.918;5.338;2024-03-22T10:48:12;15.00;99.90
40828;DHT22;26549;50.918;5.338;2024-03-22T10:50:42;15.10;99.90
40828;DHT22;26549;50.918;5.338;2024-03-22T10:53:19;15.00;99.90
40828;DHT22;26549;50.918;5.338;2024-03-22T10:56:01;15.00;99.90
40828;DHT22;26549;50.918;5.338;2024-03-22T10:58:39;15.20;99.90
40828;DHT22;26549;50.918;5.338;2024-03-22T11:01:26;15.10;99.90
40828;DHT22;26549;50.918;5.338;2024-03-22T11:04:03;15.20;99.90
40828;DHT22;26549;50.918;5.338;2024-03-22T11:06:30;15.20;99.90
40828;DHT22;26549;50.918;5.338;2024-03-22T11:08:59;15.10;99.90
40828;DHT22;26549;50.918;5.338;2024-03-22T11:11:28;15.00;99.90
40828;DHT22;26549;50.918;5.338;2024-03-22T11:13:55;15.20;99.90
40828;DHT22;26549;50.918;5.338;2024-03-22T11:16:22;15.00;99.90
40828;DHT22;26549;50.918;5.338;2024-03-22T11:18:48;15.20;99.90
40828;DHT22;26549;50.918;5.338;2024-03-22T11:21:16;15.20;99.90
40828;DHT22;26549;50.918;5.338;2024-03-22T11:23:45;15.20;99.90
40828;DHT22;26549;50.918;5.338;2024-03-22T11:26:11;15.10;99.90
40828;DHT22;26549;50.918;5.338;2024-03-22T11:28:42;15.30;99.90
40828;DHT22;26549;50.918;5.338;2024-03-22T11:31:08;15.40;99.90
40828;DHT22;26549;50.918;5.338;2024-03-22T11:33:34;15.50;99.90
40828;DHT22;26549;50.918;5.338;2024-03-22T11:36:02;15.50;99.90
40828;DHT22;26549;50.918;5.338;2024-03-22T11:38:33;15.10;99.90
40828;DHT22;26549;50.918;5.338;2024-03-22T11:41:00;15.20;99.90
40828;DHT22;26549;50.918;5.338;2024-03-22T11:43:28;15.10;99.90
40828;DHT22;26549;50.918;5.338;2024-03-22T11:45:55;15.20;99.90
40828;DHT22;26549;50.918;5.338;2024-03-22T11:48:22;15.30;99.90
40828;DHT22;26549;50.918;5.338;2024-03-22T11:50:48;15.50;99.90
40828;DHT22;26549;50.918;5.338;2024-03-22T11:53:16;15.60;99.90
40828;DHT22;26549;50.918;5.338;2024-03-22T11:55:42;15.30;99.90
40828;DHT22;26549;50.918;5.338;2024-03-22T11:58:11;15.40;99.90
40828;DHT22;26549;50.918;5.338;2024-03-22T12:00:37;15.50;99.90
40828;DHT22;26549;50.918;5.338;2024-03-22T12:03:06;15.30;99.90
40828;DHT22;26549;50.918;5.338;2024-03-22T12:05:32;15.40;99.90
40828;DHT22;26549;50.918;5.338;2024-03-22T12:07:58;15.30;99.90
40828;DHT22;26549;50.918;5.338;2024-03-22T12:10:24;14.90;99.90
40828;DHT22;26549;50.918;5.338;2024-03-22T12:12:50;14.90;99.90
40828;DHT22;26549;50.918;5.338;2024-03-22T12:15:20;15.00;99.90
40828;DHT22;26549;50.918;5.338;2024-03-22T12:17:45;14.80;99.90
40828;DHT22;26549;50.918;5.338;2024-03-22T12:20:11;14.90;99.90
40828;DHT22;26549;50.918;5.338;2024-03-22T12:22:37;15.10;99.90
40828;DHT22;26549;50.918;5.338;2024-03-22T12:25:02;15.20;99.90
40828;DHT22;26549;50.918;5.338;2024-03-22T12:27:30;15.30;99.90
40828;DHT22;26549;50.918;5.338;2024-03-22T12:29:56;15.50;99.90
40828;DHT22;26549;50.918;5.338;2024-03-22T12:32:22;15.40;99.90
40828;DHT22;26549;50.918;5.338;2024-03-22T12:34:49;15.40;99.90
40828;DHT22;26549;50.918;5.338;2024-03-22T12:37:16;15.50;99.90
40828;DHT22;26549;50.918;5.338;2024-03-22T12:39:42;15.30;99.90
40828;DHT22;26549;50.918;5.338;2024-03-22T12:42:08;15.30;99.90
40828;DHT22;26549;50.918;5.338;2024-03-22T12:44:34;15.20;99.90
40828;DHT22;26549;50.918;5.338;2024-03-22T12:47:00;15.30;99.90
40828;DHT22;26549;50.918;5.338;2024-03-22T12:49:26;15.40;99.90
40828;DHT22;26549;50.918;5.338;2024-03-22T12:51:52;15.40;99.90
40828;DHT22;26549;50.918;5.338;2024-03-22T12:54:17;15.60;99.90
40828;DHT22;26549;50.918;5.338;2024-03-22T12:56:45;15.40;99.90
40828;DHT22;26549;50.918;5.338;2024-03-22T12:59:11;15.40;99.90
40828;DHT22;26549;50.918;5.338;2024-03-22T13:01:37;15.40;99.90
40828;DHT22;26549;50.918;5.338;2024-03-22T13:04:05;15.70;99.90
40828;DHT22;26549;50.918;5.338;2024-03-22T13:06:30;15.50;99.90
40828;DHT22;26549;50.918;5.338;2024-03-22T13:08:56;15.40;99.90
40828;DHT22;26549;50.918;5.338;2024-03-22T13:11:22;15.30;99.90
40828;DHT22;26549;50.918;5.338;2024-03-22T13:13:48;15.30;99.90
40828;DHT22;26549;50.918;5.338;2024-03-22T13:16:14;15.40;99.90
40828;DHT22;26549;50.918;5.338;2024-03-22T13:18:41;15.50;99.90
40828;DHT22;26549;50.918;5.338;2024-03-22T13:21:07;15.40;99.90
40828;DHT22;26549;50.918;5.338;2024-03-22T13:23:34;15.30;99.90
40828;DHT22;26549;50.918;5.338;2024-03-22T13:26:04;15.40;99.90
40828;DHT22;26549;50.918;5.338;2024-03-22T13:28:30;15.40;99.90
40828;DHT22;26549;50.918;5.338;2024-03-22T13:31:02;15.20;99.90
40828;DHT22;26549;50.918;5.338;2024-03-22T13:33:29;14.80;99.90
40828;DHT22;26549;50.918;5.338;2024-03-22T13:35:55;14.60;99.90
40828;DHT22;26549;50.918;5.338;2024-03-22T13:38:21;14.60;99.90
40828;DHT22;26549;50.918;5.338;2024-03-22T13:40:57;14.80;99.90
40828;DHT22;26549;50.918;5.338;2024-03-22T13:43:25;14.90;99.90
40828;DHT22;26549;50.918;5.338;2024-03-22T13:45:53;15.00;99.90
40828;DHT22;26549;50.918;5.338;2024-03-22T13:48:20;14.90;99.90
40828;DHT22;26549;50.918;5.338;2024-03-22T13:50:53;14.80;99.90
40828;DHT22;26549;50.918;5.338;2024-03-22T13:53:19;14.80;99.90
40828;DHT22;26549;50.918;5.338;2024-03-22T13:55:48;14.90;99.90
40828;DHT22;26549;50.918;5.338;2024-03-22T13:58:13;14.70;99.90
40828;DHT22;26549;50.918;5.338;2024-03-22T14:00:39;14.70;99.90
40828;DHT22;26549;50.918;5.338;2024-03-22T14:03:05;14.80;99.90
40828;DHT22;26549;50.918;5.338;2024-03-22T14:05:31;15.00;99.90
40828;DHT22;26549;50.918;5.338;2024-03-22T14:08:01;14.80;99.90
40828;DHT22;26549;50.918;5.338;2024-03-22T14:10:30;14.70;99.90
40828;DHT22;26549;50.918;5.338;2024-03-22T14:12:58;14.60;99.90
40828;DHT22;26549;50.918;5.338;2024-03-22T14:15:25;14.80;99.90
40828;DHT22;26549;50.918;5.338;2024-03-22T14:17:52;14.80;99.90
40828;DHT22;26549;50.918;5.338;2024-03-22T14:20:18;14.90;99.90
40828;DHT22;26549;50.918;5.338;2024-03-22T14:22:44;14.60;99.90
40828;DHT22;26549;50.918;5.338;2024-03-22T14:25:10;14.60;99.90
40828;DHT22;26549;50.918;5.338;2024-03-22T14:27:36;14.60;99.90
40828;DHT22;26549;50.918;5.338;2024-03-22T14:30:03;14.70;99.90
40828;DHT22;26549;50.918;5.338;2024-03-22T14:32:44;14.60;99.90
40828;DHT22;26549;50.918;5.338;2024-03-22T14:35:12;14.60;99.90
40828;DHT22;26549;50.918;5.338;2024-03-22T14:37:38;14.40;99.90
40828;DHT22;26549;50.918;5.338;2024-03-22T14:40:06;14.50;99.90
40828;DHT22;26549;50.918;5.338;2024-03-22T14:42:37;14.40;99.90
40828;DHT22;26549;50.918;5.338;2024-03-22T14:45:02;14.30;99.90
40828;DHT22;26549;50.918;5.338;2024-03-22T14:47:29;14.30;99.90
40828;DHT22;26549;50.918;5.338;2024-03-22T14:49:55;14.20;99.90
40828;DHT22;26549;50.918;5.338;2024-03-22T14:52:21;14.00;99.90
40828;DHT22;26549;50.918;5.338;2024-03-22T14:54:47;13.90;99.90
40828;DHT22;26549;50.918;5.338;2024-03-22T14:57:13;13.60;99.90
40828;DHT22;26549;50.918;5.338;2024-03-22T14:59:39;13.70;99.90
40828;DHT22;26549;50.918;5.338;2024-03-22T15:02:05;13.80;99.90
40828;DHT22;26549;50.918;5.338;2024-03-22T15:04:31;13.90;99.90
40828;DHT22;26549;50.918;5.338;2024-03-22T15:06:57;13.50;99.90
40828;DHT22;26549;50.918;5.338;2024-03-22T15:09:23;13.20;99.90
40828;DHT22;26549;50.918;5.338;2024-03-22T15:11:50;12.90;99.90
40828;DHT22;26549;50.918;5.338;2024-03-22T15:14:16;13.10;99.90
40828;DHT22;26549;50.918;5.338;2024-03-22T15:16:42;13.20;99.90
40828;DHT22;26549;50.918;5.338;2024-03-22T15:19:09;13.30;99.90
40828;DHT22;26549;50.918;5.338;2024-03-22T15:21:38;13.40;99.90
40828;DHT22;26549;50.918;5.338;2024-03-22T15:24:04;13.50;99.90
40828;DHT22;26549;50.918;5.338;2024-03-22T15:26:31;13.40;99.90
40828;DHT22;26549;50.918;5.338;2024-03-22T15:28:56;13.50;99.90
40828;DHT22;26549;50.918;5.338;2024-03-22T15:31:23;13.50;99.90
40828;DHT22;26549;50.918;5.338;2024-03-22T15:33:49;13.50;99.90